Time;durP1;ratioP1;P1;durP2;ratioP2;P2;SDS_P1;SDS_P2;PMS_P1;PMS_P2;Temp;Humidity;BMP_temperature;BMP_pressure;BME280_temperature;BME280_humidity;BME280_pressure;Samples;Min_cycle;Max_cycle;Signal;HPM_P1;HPM_P2
2024/04/10 00:04:58;;;;;;;16.70;5.80;;;;;;;17.52;57.63;98682.79;238513;183;137342;-53
2024/04/10 00:10:03;;;;;;;19.90;5.50;;;;;;;17.46;57.91;98676.72;238418;183;137373;-51
2024/04/10 00:15:06;;;;;;;23.40;5.80;;;;;;;17.39;58.03;98675.91;238365;184;151120;-53
2024/04/10 00:20:10;;;;;;;21.90;5.70;;;;;;;17.33;58.44;98676.06;238083;184;136633;-49
2024/04/10 00:25:13;;;;;;;20.50;5.50;;;;;;;17.27;58.65;98679.60;238875;184;136574;-50
2024/04/10 00:30:16;;;;;;;14.70;5.70;;;;;;;17.20;58.64;98681.31;238816;184;151535;-51
2024/04/10 00:35:19;;;;;;;14.00;5.90;;;;;;;17.15;58.86;98683.42;238807;183;135495;-53
2024/04/10 00:40:22;;;;;;;18.20;5.60;;;;;;;17.07;58.93;98690.45;238975;183;135337;-50
2024/04/10 00:45:25;;;;;;;16.10;5.40;;;;;;;16.96;59.22;98700.43;238942;183;151681;-49
2024/04/10 00:50:29;;;;;;;12.40;5.00;;;;;;;16.80;59.60;98708.04;238940;183;135974;-51
2024/04/10 00:55:33;;;;;;;14.20;5.20;;;;;;;16.80;60.14;98703.98;238799;184;135479;-48
2024/04/10 01:00:37;;;;;;;16.80;5.10;;;;;;;16.77;60.12;98706.15;238823;183;151144;-50
2024/04/10 01:05:40;;;;;;;16.30;5.40;;;;;;;16.76;59.82;98707.56;238851;183;135215;-49
2024/04/10 01:10:43;;;;;;;12.80;5.20;;;;;;;16.95;56.96;98714.73;239066;183;136391;-51
2024/04/10 01:15:46;;;;;;;14.20;4.50;;;;;;;17.23;55.06;98718.16;238985;183;152979;-51
2024/04/10 01:20:50;;;;;;;13.60;4.40;;;;;;;17.46;53.97;98722.12;238890;183;135430;-52
2024/04/10 01:25:53;;;;;;;12.10;4.10;;;;;;;17.64;53.11;98725.26;238903;183;135471;-52
2024/04/10 01:30:56;;;;;;;19.50;4.80;;;;;;;17.75;52.59;98732.05;238930;183;151410;-49
2024/04/10 01:35:59;;;;;;;12.80;4.20;;;;;;;17.82;52.33;98729.31;238931;183;135393;-51
2024/04/10 01:41:03;;;;;;;9.90;4.40;;;;;;;17.87;52.15;98732.39;239002;183;135156;-51
2024/04/10 01:46:06;;;;;;;10.50;4.20;;;;;;;17.95;51.95;98733.70;239012;183;157146;-50
2024/04/10 01:51:09;;;;;;;13.20;4.30;;;;;;;17.98;51.75;98737.58;238890;183;135429;-50
2024/04/10 01:56:12;;;;;;;12.60;4.40;;;;;;;17.99;51.82;98748.59;239055;183;135352;-51
2024/04/10 02:01:15;;;;;;;8.70;4.00;;;;;;;17.95;51.73;98756.15;238947;183;152202;-50
2024/04/10 02:06:18;;;;;;;10.70;4.20;;;;;;;17.94;51.85;98763.22;238971;183;135296;-58
2024/04/10 02:11:26;;;;;;;12.00;4.40;;;;;;;17.93;51.79;98768.90;238966;183;134831;-51
2024/04/10 02:16:30;;;;;;;20.20;5.00;;;;;;;17.93;52.11;98775.02;238968;183;151134;-48
2024/04/10 02:21:33;;;;;;;17.00;4.80;;;;;;;17.94;52.47;98779.81;238914;183;135482;-49
2024/04/10 02:26:36;;;;;;;19.80;5.10;;;;;;;17.96;52.90;98784.27;238961;183;135517;-52
2024/04/10 02:31:39;;;;;;;19.10;5.20;;;;;;;18.00;53.29;98789.84;238955;183;151349;-51
2024/04/10 02:36:42;;;;;;;14.20;5.30;;;;;;;18.01;53.41;98801.06;238915;183;135668;-52
2024/04/10 02:41:45;;;;;;;17.90;5.20;;;;;;;18.02;53.61;98807.37;238972;183;135227;-49
2024/04/10 02:46:49;;;;;;;16.10;5.40;;;;;;;17.99;53.71;98814.15;238942;183;151321;-52
2024/04/10 02:51:52;;;;;;;19.70;5.50;;;;;;;17.91;53.83;98825.81;238852;183;135577;-51
2024/04/10 02:56:55;;;;;;;17.70;5.70;;;;;;;17.86;54.21;98834.45;238883;183;136060;-49
2024/04/10 03:01:58;;;;;;;19.20;6.10;;;;;;;17.78;54.38;98845.56;238938;183;153449;-52
2024/04/10 03:07:03;;;;;;;20.50;5.50;;;;;;;17.71;54.63;98854.59;238902;183;135510;-52
2024/04/10 03:12:07;;;;;;;16.10;5.30;;;;;;;17.66;54.95;98868.40;238839;183;136112;-52
2024/04/10 03:17:11;;;;;;;18.20;5.50;;;;;;;17.61;55.62;98875.99;238841;183;151022;-53
2024/04/10 03:22:15;;;;;;;19.80;5.20;;;;;;;17.62;56.27;98884.86;238839;183;135442;-53
2024/04/10 03:27:18;;;;;;;21.70;5.60;;;;;;;17.64;56.83;98892.83;238908;183;136706;-53
2024/04/10 03:32:21;;;;;;;20.90;6.10;;;;;;;17.67;57.27;98900.64;238955;183;151484;-51
2024/04/10 03:37:25;;;;;;;21.50;5.90;;;;;;;17.67;57.72;98918.21;238949;183;135870;-50
2024/04/10 03:42:28;;;;;;;23.20;5.70;;;;;;;17.65;57.96;98926.77;238927;183;135259;-52
2024/04/10 03:47:32;;;;;;;17.40;5.80;;;;;;;17.62;58.38;98932.25;238915;183;151748;-51
2024/04/10 03:52:35;;;;;;;17.70;4.80;;;;;;;17.62;59.32;98945.89;238831;183;136022;-50
2024/04/10 03:57:38;;;;;;;21.70;5.70;;;;;;;17.63;59.70;98963.39;238875;183;135320;-50
2024/04/10 04:02:41;;;;;;;20.60;5.00;;;;;;;17.63;60.07;98967.67;238852;183;152846;-49
2024/04/10 04:07:44;;;;;;;15.30;4.80;;;;;;;17.64;60.48;98965.69;238901;183;135024;-50
2024/04/10 04:12:47;;;;;;;20.00;4.50;;;;;;;17.67;60.45;98981.90;238914;183;135487;-51
2024/04/10 04:17:50;;;;;;;15.50;4.60;;;;;;;17.69;60.56;99001.56;238929;183;151559;-52
2024/04/10 04:22:53;;;;;;;18.00;4.30;;;;;;;17.73;60.56;99011.13;238831;183;136396;-51
2024/04/10 04:27:56;;;;;;;14.20;4.50;;;;;;;17.77;60.35;99026.39;238959;183;135206;-53
2024/04/10 04:32:59;;;;;;;63.10;37.20;;;;;;;17.79;60.62;99032.44;238934;183;151075;-50
2024/04/10 04:38:03;;;;;;;24.20;10.60;;;;;;;17.86;60.31;99037.55;238942;183;137185;-52
2024/04/10 04:43:09;;;;;;;27.20;11.70;;;;;;;17.91;60.28;99047.87;238960;183;136475;-51
2024/04/10 04:48:12;;;;;;;14.80;5.90;;;;;;;17.91;60.09;99055.84;238890;183;151336;-50
2024/04/10 04:53:16;;;;;;;14.70;6.30;;;;;;;18.03;60.86;99069.95;238918;183;135326;-53
2024/04/10 04:58:19;;;;;;;17.00;4.80;;;;;;;18.40;60.76;99079.62;238965;183;136431;-45
2024/04/10 05:08:48;;;;;;;13.00;4.00;;;;;;;19.12;59.01;99093.48;238814;183;135636;-42
2024/04/10 05:13:51;;;;;;;12.20;3.90;;;;;;;19.36;57.95;99102.95;238928;183;135270;-43
2024/04/10 05:18:55;;;;;;;13.30;4.10;;;;;;;19.57;57.50;99111.36;238940;183;152280;-43
2024/04/10 05:23:58;;;;;;;9.30;3.50;;;;;;;19.76;56.78;99121.48;238913;180;136491;-42
2024/04/10 05:29:02;;;;;;;12.50;4.00;;;;;;;19.86;56.31;99122.96;239000;183;135282;-53
2024/04/10 05:34:05;;;;;;;494.40;438.90;;;;;;;19.82;55.60;99133.62;238934;183;151263;-52
2024/04/10 05:39:08;;;;;;;22.80;10.90;;;;;;;19.54;56.07;99148.89;238882;183;135399;-52
2024/04/10 05:44:11;;;;;;;12.50;5.00;;;;;;;19.31;56.26;99155.98;238977;183;135985;-52
2024/04/10 05:49:14;;;;;;;12.10;4.50;;;;;;;19.17;56.56;99161.25;238922;183;152000;-50
2024/04/10 05:54:17;;;;;;;11.60;4.10;;;;;;;19.03;56.96;99165.88;238950;183;135474;-49
2024/04/10 05:59:21;;;;;;;19.50;4.60;;;;;;;18.93;57.09;99166.17;238917;183;135458;-51
2024/04/10 06:04:24;;;;;;;10.50;3.50;;;;;;;18.89;57.50;99179.47;238962;183;151919;-54
2024/04/10 06:09:28;;;;;;;9.30;4.20;;;;;;;18.82;57.75;99188.56;238904;183;136433;-53
2024/04/10 06:14:31;;;;;;;16.20;4.30;;;;;;;18.77;58.09;99192.77;238926;180;134931;-52
2024/04/10 06:19:34;;;;;;;14.80;4.70;;;;;;;18.74;58.28;99203.36;238808;183;151155;-48
2024/04/10 06:24:37;;;;;;;15.20;7.40;;;;;;;18.74;58.47;99219.91;238938;183;135604;-41
2024/04/10 06:29:44;;;;;;;21.20;13.30;;;;;;;18.85;58.98;99230.86;238902;183;135426;-51
2024/04/10 06:34:48;;;;;;;27.50;6.30;;;;;;;19.00;58.40;99238.13;238869;183;151540;-48
2024/04/10 06:39:51;;;;;;;12.50;5.40;;;;;;;18.86;58.39;99249.16;238851;183;135102;-51
2024/04/10 06:44:54;;;;;;;14.00;5.80;;;;;;;18.69;58.09;99265.55;238926;183;135484;-50
2024/04/10 06:49:57;;;;;;;13.50;5.50;;;;;;;18.59;58.02;99279.75;238921;183;151115;-51
2024/04/10 06:55:00;;;;;;;17.10;5.40;;;;;;;18.53;57.63;99292.02;238791;183;135677;-51
2024/04/10 07:00:12;;;;;;;15.90;6.80;;;;;;;18.49;57.56;99298.55;238808;183;135737;-50
2024/04/10 07:05:16;;;;;;;11.90;5.00;;;;;;;18.41;57.28;99308.97;238904;183;151455;-50
2024/04/10 07:10:18;;;;;;;16.20;4.80;;;;;;;18.33;57.55;99321.12;238850;183;136014;-51
2024/04/10 07:15:22;;;;;;;11.80;5.20;;;;;;;18.27;57.18;99341.12;238837;183;135933;-50
2024/04/10 07:20:26;;;;;;;24.20;5.20;;;;;;;18.14;57.16;99350.52;238853;183;151529;-50
2024/04/10 07:25:29;;;;;;;15.30;4.40;;;;;;;18.02;56.88;99357.84;238732;183;135982;-51
2024/04/10 07:30:32;;;;;;;8.70;4.40;;;;;;;17.89;56.92;99364.77;238682;183;136365;-48
2024/04/10 07:35:35;;;;;;;22.60;4.00;;;;;;;17.73;56.78;99378.67;238879;183;151845;-52
2024/04/10 07:40:38;;;;;;;15.80;5.80;;;;;;;17.58;56.73;99392.66;238938;183;135228;-50
2024/04/10 07:45:41;;;;;;;13.60;4.60;;;;;;;17.43;56.52;99407.91;238965;183;135178;-50
2024/04/10 07:50:44;;;;;;;19.30;5.40;;;;;;;17.29;56.25;99420.46;238821;183;152115;-50
2024/04/10 07:55:47;;;;;;;21.90;5.20;;;;;;;17.08;55.93;99424.67;238814;183;135546;-48
2024/04/10 08:00:56;;;;;;;14.20;4.80;;;;;;;16.89;55.94;99437.88;238860;181;135429;-50
2024/04/10 08:06:01;;;;;;;16.00;4.60;;;;;;;16.71;55.85;99451.53;238901;183;151390;-48
2024/04/10 08:11:09;;;;;;;15.20;4.80;;;;;;;16.51;55.98;99457.98;238854;183;135187;-49
2024/04/10 08:16:12;;;;;;;15.50;4.40;;;;;;;16.33;56.18;99469.56;238944;183;135521;-54
2024/04/10 08:21:16;;;;;;;13.80;4.50;;;;;;;16.21;56.46;99480.55;238933;181;151806;-54
2024/04/10 08:26:20;;;;;;;14.00;4.50;;;;;;;16.10;56.67;99488.42;239030;183;136569;-53
2024/04/10 08:31:24;;;;;;;15.80;4.40;;;;;;;16.04;56.56;99499.96;238831;183;135781;-54
2024/04/10 08:36:28;;;;;;;8.70;4.40;;;;;;;16.00;56.21;99513.38;238975;183;153607;-54
2024/04/10 08:41:33;;;;;;;10.70;4.00;;;;;;;15.95;56.15;99519.98;238924;183;135294;-54
2024/04/10 08:46:38;;;;;;;12.40;4.20;;;;;;;15.92;56.19;99537.39;239002;183;135201;-54
2024/04/10 08:51:42;;;;;;;12.30;4.30;;;;;;;15.93;56.08;99548.98;238985;183;151224;-55
2024/04/10 08:56:46;;;;;;;11.20;3.20;;;;;;;15.93;56.07;99560.96;238825;183;135253;-56
2024/04/10 09:01:49;;;;;;;13.70;4.40;;;;;;;15.92;55.71;99568.58;238927;183;136119;-54
2024/04/10 09:07:03;;;;;;;12.60;4.30;;;;;;;15.94;55.59;99579.65;238952;183;152201;-54
2024/04/10 09:12:06;;;;;;;16.70;3.80;;;;;;;15.94;55.37;99590.28;238904;183;135280;-53
2024/04/10 09:17:09;;;;;;;12.40;4.00;;;;;;;15.87;55.12;99591.09;238809;183;134894;-53
2024/04/10 09:22:13;;;;;;;12.10;3.50;;;;;;;15.90;55.14;99601.48;238849;183;151364;-55
2024/04/10 09:27:17;;;;;;;8.80;3.70;;;;;;;15.93;54.95;99608.39;238774;183;135388;-55
2024/04/10 09:32:21;;;;;;;139.10;76.80;;;;;;;15.93;54.78;99617.67;238380;183;137304;-45
2024/04/10 09:37:26;;;;;;;8.70;4.80;;;;;;;16.05;54.34;99626.27;238346;183;153299;-53
2024/04/10 09:42:33;;;;;;;10.10;3.30;;;;;;;16.06;53.84;99634.09;237779;184;136859;-55
2024/04/10 09:47:37;;;;;;;12.70;4.00;;;;;;;16.10;53.74;99645.36;238212;183;137534;-54
2024/04/10 09:52:42;;;;;;;118.90;76.60;;;;;;;16.16;53.21;99657.14;238183;179;151106;-54
2024/04/10 09:57:45;;;;;;;9.20;4.60;;;;;;;16.17;52.89;99662.80;238300;180;136989;-54
2024/04/10 10:02:48;;;;;;;11.00;3.70;;;;;;;16.17;52.69;99663.88;238330;183;137129;-54
2024/04/10 10:08:22;;;;;;;10.70;3.20;;;;;;;16.12;52.65;99669.59;238166;183;151900;-55
2024/04/10 10:13:30;;;;;;;9.60;2.80;;;;;;;16.15;52.73;99667.20;238003;183;138623;-55
2024/04/10 10:18:33;;;;;;;9.10;3.00;;;;;;;16.20;52.42;99675.44;238140;183;137468;-54
2024/04/10 10:23:40;;;;;;;7.10;2.90;;;;;;;16.28;52.43;99674.46;238224;183;152784;-56
2024/04/10 10:28:44;;;;;;;10.30;2.80;;;;;;;16.38;52.13;99674.58;238204;183;137649;-53
2024/04/10 10:33:48;;;;;;;11.00;3.40;;;;;;;16.47;51.81;99675.73;238391;183;137422;-54
2024/04/10 10:39:14;;;;;;;12.80;3.10;;;;;;;16.55;51.60;99679.26;238322;183;151331;-54
2024/04/10 10:44:22;;;;;;;9.20;2.70;;;;;;;16.65;51.21;99689.40;238109;183;137464;-54
2024/04/10 10:49:27;;;;;;;11.60;3.10;;;;;;;16.70;51.37;99701.59;238142;183;140321;-54
2024/04/10 10:54:30;;;;;;;9.30;3.10;;;;;;;16.83;51.05;99707.36;236291;183;2136540;-54
2024/04/10 10:59:33;;;;;;;8.70;3.50;;;;;;;16.92;50.78;99712.09;238242;183;137991;-55
2024/04/10 11:04:36;;;;;;;10.40;3.60;;;;;;;16.89;50.54;99725.77;238209;183;137145;-55
2024/04/10 11:09:40;;;;;;;11.50;3.70;;;;;;;16.79;50.75;99732.45;238483;183;151337;-56
2024/04/10 11:14:43;;;;;;;10.90;3.90;;;;;;;16.75;51.05;99744.73;238230;181;137556;-55
2024/04/10 11:19:46;;;;;;;10.80;3.30;;;;;;;16.82;51.25;99753.56;238277;183;141655;-56
2024/04/10 11:24:54;;;;;;;14.60;3.30;;;;;;;16.74;51.18;99757.85;238397;183;153482;-55
2024/04/10 11:29:58;;;;;;;9.90;3.20;;;;;;;16.78;51.04;99752.91;238265;183;137301;-55
2024/04/10 11:35:01;;;;;;;10.40;3.20;;;;;;;16.86;51.17;99757.53;238203;183;137953;-54
2024/04/10 11:40:11;;;;;;;8.80;3.50;;;;;;;16.87;50.73;99758.73;238323;183;151160;-53
2024/04/10 11:45:15;;;;;;;11.20;3.70;;;;;;;16.85;50.38;99761.34;238390;183;136760;-56
2024/04/10 11:50:19;;;;;;;11.30;3.50;;;;;;;16.86;50.53;99763.45;238353;183;137767;-55
2024/04/10 11:55:22;;;;;;;9.70;4.30;;;;;;;16.91;50.44;99767.66;238243;180;152281;-54
2024/04/10 12:00:25;;;;;;;15.00;4.40;;;;;;;16.99;50.62;99774.23;238135;184;136846;-53
2024/04/10 12:05:28;;;;;;;9.10;3.90;;;;;;;17.00;49.90;99770.24;238201;183;140380;-55
2024/04/10 12:10:32;;;;;;;11.90;4.70;;;;;;;16.97;49.95;99774.60;238224;183;151514;-56
2024/04/10 12:15:35;;;;;;;10.90;5.40;;;;;;;16.92;50.02;99773.00;238348;183;137541;-54
2024/04/10 12:20:38;;;;;;;11.40;5.50;;;;;;;16.97;50.27;99765.23;238371;183;136845;-55
2024/04/10 12:25:42;;;;;;;10.80;5.60;;;;;;;17.12;50.86;99762.52;238103;181;152072;-54
2024/04/10 12:30:48;;;;;;;11.00;4.50;;;;;;;17.29;50.19;99765.52;238196;183;137913;-55
2024/04/10 12:41:15;;;;;;;11.10;5.80;;;;;;;17.35;49.89;99771.85;238164;183;152217;-55
2024/04/10 12:46:21;;;;;;;8.70;4.40;;;;;;;17.42;49.97;99776.16;238216;183;137600;-54
2024/04/10 12:51:24;;;;;;;11.10;3.60;;;;;;;17.38;49.91;99780.00;238393;183;137214;-55
2024/04/10 12:56:27;;;;;;;11.50;3.20;;;;;;;17.38;49.94;99783.79;238152;183;151938;-54
2024/04/10 13:01:31;;;;;;;8.10;2.50;;;;;;;17.41;49.84;99787.11;238256;183;138044;-54
2024/04/10 13:06:34;;;;;;;15.70;6.10;;;;;;;17.39;49.51;99788.92;238219;183;136470;-54
2024/04/10 13:11:39;;;;;;;8.70;2.60;;;;;;;17.33;49.55;99791.54;238115;183;151968;-54
2024/04/10 13:16:43;;;;;;;6.10;2.70;;;;;;;17.20;49.76;99795.05;238170;183;136877;-55
2024/04/10 13:21:46;;;;;;;12.40;2.60;;;;;;;17.13;49.86;99799.37;238455;180;137508;-56
2024/04/10 13:26:49;;;;;;;10.10;2.20;;;;;;;17.08;49.68;99804.29;238238;183;153502;-55
2024/04/10 13:31:52;;;;;;;8.40;2.20;;;;;;;16.98;49.56;99815.23;238305;183;137233;-59
2024/04/10 13:36:55;;;;;;;7.60;2.50;;;;;;;16.95;49.78;99815.48;238214;183;136854;-56
2024/04/10 13:41:58;;;;;;;11.60;2.10;;;;;;;16.95;50.05;99820.87;238181;180;151116;-53
2024/04/10 13:47:01;;;;;;;8.50;2.40;;;;;;;16.89;49.96;99835.09;238166;183;137648;-55
2024/04/10 13:52:05;;;;;;;11.00;2.90;;;;;;;16.87;50.01;99841.71;238338;183;136734;-55
2024/04/10 13:57:09;;;;;;;11.10;2.70;;;;;;;16.81;50.03;99848.45;238351;183;152497;-59
2024/04/10 14:02:12;;;;;;;9.70;2.20;;;;;;;16.75;50.35;99856.40;238222;183;137601;-53
2024/04/10 14:07:15;;;;;;;7.90;2.20;;;;;;;16.72;50.32;99863.20;238240;183;136659;-51
2024/04/10 14:12:18;;;;;;;9.20;2.30;;;;;;;16.70;50.32;99864.42;238288;183;152890;-52
2024/04/10 14:17:21;;;;;;;11.90;2.30;;;;;;;16.66;50.16;99866.73;238247;183;136891;-53
2024/04/10 14:22:31;;;;;;;9.80;2.50;;;;;;;16.61;50.15;99865.81;238213;183;137345;-53
2024/04/10 14:27:34;;;;;;;7.90;2.30;;;;;;;16.60;50.24;99869.10;238431;183;151835;-52
2024/04/10 14:32:37;;;;;;;5.90;2.10;;;;;;;16.57;50.28;99882.21;238116;183;140297;-52
2024/04/10 14:37:40;;;;;;;7.00;2.60;;;;;;;16.51;50.38;99883.25;238194;183;136637;-53
2024/04/10 14:42:43;;;;;;;9.80;2.10;;;;;;;16.48;50.22;99885.38;238214;183;152263;-54
2024/04/10 14:47:46;;;;;;;7.90;2.30;;;;;;;16.46;50.37;99890.75;238001;183;137198;-57
2024/04/10 14:52:50;;;;;;;95.10;73.30;;;;;;;16.48;50.42;99894.76;238219;181;137385;-55
2024/04/10 14:57:52;;;;;;;7.30;3.10;;;;;;;16.50;50.27;99895.80;238209;180;151401;-57
2024/04/10 15:02:57;;;;;;;7.50;2.40;;;;;;;16.47;50.01;99899.07;238384;183;137072;-57
2024/04/10 15:08:01;;;;;;;9.70;2.40;;;;;;;16.46;50.24;99908.14;238276;183;137161;-60
2024/04/10 15:13:04;;;;;;;8.30;2.10;;;;;;;16.47;50.36;99916.65;238168;181;151105;-56
2024/04/10 15:18:09;;;;;;;;;;;;;;;16.48;50.43;99916.96;238138;183;140580;-56
2024/04/10 15:23:12;;;;;;;6.70;1.90;;;;;;;16.42;50.31;99920.91;238383;181;137130;-55
2024/04/10 15:28:15;;;;;;;7.90;2.00;;;;;;;16.44;50.41;99921.55;238271;183;152069;-58
2024/04/10 15:33:18;;;;;;;9.60;2.30;;;;;;;16.42;50.41;99927.05;238410;183;136587;-56
2024/04/10 15:38:22;;;;;;;6.30;2.00;;;;;;;16.38;50.43;99931.27;238181;183;138651;-57
2024/04/10 15:43:26;;;;;;;5.20;2.20;;;;;;;16.34;50.59;99934.42;238256;183;151433;-57
2024/04/10 15:48:31;;;;;;;3.90;2.10;;;;;;;16.31;50.92;99937.85;238184;183;137452;-57
2024/04/10 15:53:35;;;;;;;3.90;2.20;;;;;;;16.31;51.10;99944.65;238235;180;138825;-57
2024/04/10 15:58:39;;;;;;;6.80;2.80;;;;;;;16.30;51.19;99954.04;238256;183;151738;-58
2024/04/10 16:03:44;;;;;;;5.40;2.40;;;;;;;16.27;51.08;99959.80;238132;181;136889;-55
2024/04/10 16:08:49;;;;;;;7.40;2.60;;;;;;;16.21;51.10;99969.56;238213;183;139785;-58
2024/04/10 16:13:53;;;;;;;6.40;2.60;;;;;;;16.19;51.25;99983.48;238327;183;152738;-57
2024/04/10 16:18:56;;;;;;;5.70;2.30;;;;;;;16.13;51.23;99989.41;238321;183;137684;-57
2024/04/10 16:23:59;;;;;;;9.20;2.70;;;;;;;16.10;51.35;100000.55;238274;183;137083;-57
2024/04/10 16:29:02;;;;;;;16.40;10.90;;;;;;;16.06;51.40;100008.20;238132;183;151338;-56
2024/04/10 16:34:05;;;;;;;4.70;2.80;;;;;;;16.06;51.50;100011.20;238232;183;137852;-55
2024/04/10 16:39:09;;;;;;;11.50;2.30;;;;;;;16.04;51.17;100016.04;238278;183;137810;-57
2024/04/10 16:44:12;;;;;;;6.30;2.20;;;;;;;15.94;51.09;100019.94;238248;183;152613;-56
2024/04/10 16:49:15;;;;;;;8.70;3.80;;;;;;;15.89;51.04;100026.55;238198;183;137625;-57
2024/04/10 16:54:18;;;;;;;5.90;2.00;;;;;;;15.89;51.27;100030.66;238187;183;137521;-53
2024/04/10 16:59:21;;;;;;;5.50;3.30;;;;;;;15.85;51.21;100034.30;238258;183;151919;-49
2024/04/10 17:04:25;;;;;;;8.00;2.10;;;;;;;15.88;52.12;100045.08;238144;181;136971;-53
2024/04/10 17:09:28;;;;;;;9.00;2.50;;;;;;;15.94;51.24;100048.91;238066;183;137206;-54
2024/04/10 17:14:31;;;;;;;6.80;2.30;;;;;;;15.86;51.26;100049.66;238221;183;152132;-56
2024/04/10 17:24:56;;;;;;;8.60;2.10;;;;;;;15.76;51.59;100062.63;238232;183;138931;-56
2024/04/10 17:29:59;;;;;;;7.30;2.20;;;;;;;15.72;51.81;100067.79;238106;183;151145;-55
2024/04/10 17:35:04;;;;;;;6.10;2.30;;;;;;;15.68;51.83;100074.67;238124;183;138259;-55
2024/04/10 17:40:08;;;;;;;5.00;2.00;;;;;;;15.62;51.74;100084.30;238250;183;136887;-56
2024/04/10 17:45:11;;;;;;;14.40;7.80;;;;;;;15.58;52.01;100096.06;238228;183;151224;-56
2024/04/10 17:50:14;;;;;;;6.10;2.50;;;;;;;15.57;52.09;100105.04;238033;183;140567;-55
2024/04/10 17:55:17;;;;;;;6.20;2.10;;;;;;;15.55;52.26;100109.64;238189;183;136701;-56
2024/04/10 18:00:21;;;;;;;5.40;2.00;;;;;;;15.52;52.30;100117.94;238119;183;151818;-54
2024/04/10 18:05:27;;;;;;;6.00;2.90;;;;;;;15.47;52.31;100126.30;238155;183;138791;-54
2024/04/10 18:10:30;;;;;;;5.70;2.40;;;;;;;15.42;52.41;100137.91;238112;183;136854;-53
2024/04/10 18:15:33;;;;;;;5.20;2.30;;;;;;;15.41;52.52;100151.38;238333;183;151336;-52
2024/04/10 18:20:37;;;;;;;14.30;9.00;;;;;;;15.36;52.55;100161.27;238165;183;137672;-50
2024/04/10 18:25:40;;;;;;;161.50;131.10;;;;;;;15.41;52.90;100165.46;237670;183;138531;-49
2024/04/10 18:30:43;;;;;;;9.00;5.40;;;;;;;15.57;52.90;100179.65;238274;183;152030;-50
2024/04/10 18:35:55;;;;;;;10.00;3.20;;;;;;;15.65;52.35;100184.52;238156;183;137429;-51
2024/04/10 18:41:07;;;;;;;5.00;2.70;;;;;;;15.65;52.15;100188.98;238127;183;137774;-50
2024/04/10 18:46:10;;;;;;;5.60;2.70;;;;;;;15.63;52.07;100193.77;238227;183;157329;-49
2024/04/10 18:51:19;;;;;;;9.90;2.80;;;;;;;15.56;52.07;100199.93;238446;183;136862;-49
2024/04/10 18:56:25;;;;;;;4.10;2.70;;;;;;;15.48;52.23;100206.52;238184;183;137392;-50
2024/04/10 19:01:28;;;;;;;56.90;46.90;;;;;;;15.45;52.40;100208.86;237972;183;151438;-51
2024/04/10 19:06:31;;;;;;;8.50;4.30;;;;;;;15.51;52.39;100211.89;238149;183;137996;-48
2024/04/10 19:11:37;;;;;;;4.80;2.70;;;;;;;15.56;52.31;100216.02;238192;183;271826;-48
2024/04/10 19:16:40;;;;;;;12.20;5.40;;;;;;;15.64;52.26;100220.37;238343;183;152414;-50
2024/04/10 19:21:43;;;;;;;5.40;3.00;;;;;;;15.71;52.15;100227.48;238411;183;136979;-52
2024/04/10 19:26:46;;;;;;;5.70;2.90;;;;;;;15.75;52.08;100227.02;238243;183;137148;-48
2024/04/10 19:31:50;;;;;;;8.90;3.00;;;;;;;15.76;51.88;100233.22;237761;183;151324;-48
2024/04/10 19:36:53;;;;;;;8.10;2.60;;;;;;;15.66;52.06;100245.45;238080;183;136762;-49
2024/04/10 19:41:57;;;;;;;7.20;3.00;;;;;;;15.58;52.28;100257.92;238317;183;136671;-46
2024/04/10 19:47:03;;;;;;;5.10;2.90;;;;;;;15.48;52.51;100264.14;238041;183;151321;-50
2024/04/10 19:52:06;;;;;;;5.50;2.90;;;;;;;15.33;52.80;100274.30;238275;183;138198;-50
2024/04/10 19:57:10;;;;;;;8.30;2.90;;;;;;;15.26;53.01;100281.77;238256;183;140155;-46
2024/04/10 20:02:13;;;;;;;6.70;3.00;;;;;;;15.19;53.20;100288.13;238231;183;152825;-51
2024/04/10 20:07:16;;;;;;;4.60;2.70;;;;;;;15.08;53.29;100292.70;238223;183;137863;-52
2024/04/10 20:12:19;;;;;;;5.20;2.80;;;;;;;15.05;53.50;100298.39;238203;183;137779;-51
2024/04/10 20:17:22;;;;;;;6.50;3.50;;;;;;;15.00;53.61;100309.05;238215;184;151393;-51
2024/04/10 20:22:26;;;;;;;6.20;3.60;;;;;;;14.96;53.53;100317.94;237942;181;137826;-48
2024/04/10 20:27:33;;;;;;;35.90;25.50;;;;;;;14.88;53.69;100319.08;238423;183;137157;-47
2024/04/10 20:32:36;;;;;;;31.30;23.60;;;;;;;14.92;54.11;100322.59;238152;183;151188;-47
2024/04/10 20:37:40;;;;;;;14.40;6.20;;;;;;;14.98;54.13;100325.09;238272;183;138002;-51
2024/04/10 20:42:43;;;;;;;14.00;9.30;;;;;;;15.05;53.92;100326.48;238296;183;137099;-50
2024/04/10 20:47:46;;;;;;;6.80;3.30;;;;;;;15.14;53.64;100328.26;238214;183;151988;-50
2024/04/10 20:52:49;;;;;;;90.90;79.80;;;;;;;15.23;53.39;100336.84;238195;183;141314;-49
2024/04/10 20:57:53;;;;;;;10.40;7.00;;;;;;;15.30;53.28;100345.00;238169;183;137108;-47
2024/04/10 21:02:56;;;;;;;7.80;3.30;;;;;;;15.26;53.05;100352.72;238444;177;151397;-51
2024/04/10 22:12:36;;;;;;;7.80;2.90;;;;;;;14.47;54.55;100413.95;238148;183;136653;-51
2024/04/10 22:28:27;;;;;;;6.00;2.80;;;;;;;14.35;54.78;100428.73;238107;183;136913;-49
2024/04/10 22:33:31;;;;;;;6.40;3.20;;;;;;;14.29;54.93;100433.69;238344;183;136923;-49
2024/04/10 22:38:34;;;;;;;8.00;3.40;;;;;;;14.27;55.05;100432.17;238119;183;151682;-47
2024/04/10 22:43:45;;;;;;;7.70;3.10;;;;;;;14.22;55.16;100437.29;238052;183;137112;-51
2024/04/10 22:48:48;;;;;;;7.10;3.40;;;;;;;14.21;55.32;100439.49;237972;184;137502;-52
2024/04/10 22:53:51;;;;;;;6.80;3.30;;;;;;;14.22;55.29;100439.60;237730;183;151435;-51
2024/04/10 22:58:54;;;;;;;8.60;3.40;;;;;;;14.22;55.24;100440.86;237782;176;137954;-50
2024/04/10 23:03:58;;;;;;;8.10;3.30;;;;;;;14.19;55.26;100447.78;238289;181;138122;-48
2024/04/10 23:09:01;;;;;;;6.20;3.00;;;;;;;14.22;55.19;100444.96;238313;183;151588;-50
2024/04/10 23:14:06;;;;;;;6.50;3.50;;;;;;;14.18;55.19;100446.80;238193;183;137812;-46
2024/04/10 23:19:09;;;;;;;7.70;3.50;;;;;;;14.15;55.37;100448.95;238113;183;136809;-49
2024/04/10 23:24:19;;;;;;;12.10;3.50;;;;;;;14.13;55.55;100452.94;238257;183;152357;-51
2024/04/10 23:29:22;;;;;;;8.90;3.30;;;;;;;14.12;55.47;100456.77;238092;183;137089;-50
2024/04/10 23:34:25;;;;;;;7.70;3.70;;;;;;;14.09;55.64;100454.42;238268;183;137234;-49
2024/04/10 23:39:28;;;;;;;8.40;3.40;;;;;;;14.05;55.81;100451.05;238350;183;152080;-49
2024/04/10 23:44:31;;;;;;;6.20;3.30;;;;;;;14.03;55.98;100454.73;238131;183;137550;-51
2024/04/10 23:49:36;;;;;;;7.60;3.50;;;;;;;14.03;56.00;100454.40;238209;183;137132;-50
2024/04/10 23:54:41;;;;;;;8.90;3.20;;;;;;;14.02;56.08;100460.48;238142;183;151355;-47
2024/04/10 23:59:43;;;;;;;10.10;3.80;;;;;;;14.03;56.10;100461.02;238020;183;139094;-51
